createdAt,value
2024-05-09T00:00:29.647Z,101137.94
2024-05-09T00:02:34.600Z,101139.08
2024-05-09T00:04:37.773Z,101140.35
2024-05-09T00:06:41.082Z,101140.05
2024-05-09T00:08:44.268Z,101140.02
2024-05-09T00:10:50.055Z,101136.97
2024-05-09T00:12:53.276Z,101138.05
2024-05-09T00:14:56.439Z,101137.27
2024-05-09T00:16:59.587Z,101136.85
2024-05-09T00:19:02.843Z,101138.20
2024-05-09T00:21:08.645Z,101138.31
2024-05-09T00:23:14.232Z,101138.13
2024-05-09T00:25:17.503Z,101139.95
2024-05-09T00:27:21.650Z,101141.48
2024-05-09T00:29:24.869Z,101144.03
2024-05-09T00:31:28.088Z,101145.22
2024-05-09T00:33:31.385Z,101143.10
2024-05-09T00:35:34.902Z,101143.07
2024-05-09T00:37:38.062Z,101143.85
2024-05-09T00:39:41.171Z,101144.30
2024-05-09T00:41:44.452Z,101143.09
2024-05-09T00:43:47.597Z,101143.09
2024-05-09T00:45:50.863Z,101137.63
2024-05-09T00:47:54.199Z,101139.73
2024-05-09T00:49:57.537Z,101140.57
2024-05-09T00:52:01.095Z,101138.91
2024-05-09T00:54:06.493Z,101139.09
2024-05-09T00:56:13.342Z,101139.11
2024-05-09T00:58:19.740Z,101140.99
2024-05-09T01:00:31.397Z,101142.20
2024-05-09T01:02:41.989Z,101143.14
2024-05-09T01:04:45.193Z,101143.14
2024-05-09T01:06:49.279Z,101142.21
2024-05-09T01:08:52.949Z,101141.63
2024-05-09T01:10:56.294Z,101142.51
2024-05-09T01:12:59.470Z,101141.10
2024-05-09T01:15:02.598Z,101140.10
2024-05-09T01:17:06.583Z,101143.29
2024-05-09T01:19:23.493Z,101143.64
2024-05-09T01:21:26.885Z,101142.67
2024-05-09T01:23:30.201Z,101141.22
2024-05-09T01:25:36.518Z,101139.11
2024-05-09T01:27:39.676Z,101139.65
2024-05-09T01:29:42.807Z,101140.92
2024-05-09T01:31:48.357Z,101141.83
2024-05-09T01:33:51.691Z,101140.73
2024-05-09T01:35:54.891Z,101141.52
2024-05-09T01:37:58.020Z,101142.35
2024-05-09T01:40:01.315Z,101141.62
2024-05-09T01:42:04.547Z,101138.70
2024-05-09T01:44:07.656Z,101137.99
2024-05-09T01:46:17.913Z,101137.02
2024-05-09T01:48:21.385Z,101137.81
2024-05-09T01:50:35.847Z,101138.23
2024-05-09T01:52:42.545Z,101138.63
2024-05-09T01:54:45.717Z,101135.73
2024-05-09T01:56:48.843Z,101134.70
2024-05-09T01:58:52.099Z,101135.80
2024-05-09T02:00:55.669Z,101133.66
2024-05-09T02:02:59.229Z,101134.48
2024-05-09T02:05:02.510Z,101134.16
2024-05-09T02:07:06.920Z,101133.69
2024-05-09T02:09:10.777Z,101133.59
2024-05-09T02:11:13.942Z,101134.13
2024-05-09T02:13:17.702Z,101134.07
2024-05-09T02:15:20.804Z,101133.58
2024-05-09T02:17:24.095Z,101133.52
2024-05-09T02:19:27.972Z,101135.56
2024-05-09T02:21:35.085Z,101137.55
2024-05-09T02:23:38.397Z,101134.56
2024-05-09T02:25:43.353Z,101134.82
2024-05-09T02:27:46.573Z,101132.87
2024-05-09T02:29:49.695Z,101132.07
2024-05-09T02:31:52.908Z,101128.89
2024-05-09T02:33:56.455Z,101128.41
2024-05-09T02:35:59.830Z,101127.05
2024-05-09T02:38:03.120Z,101127.66
2024-05-09T02:40:11.519Z,101127.01
2024-05-09T02:42:17.203Z,101126.97
2024-05-09T02:44:20.481Z,101127.70
2024-05-09T02:46:23.595Z,101126.37
2024-05-09T02:48:26.886Z,101126.49
2024-05-09T02:50:37.150Z,101128.15
2024-05-09T02:52:42.551Z,101127.94
2024-05-09T02:54:45.671Z,101131.67
2024-05-09T02:56:49.200Z,101131.34
2024-05-09T02:58:52.473Z,101134.71
2024-05-09T03:00:55.703Z,101134.14
2024-05-09T03:02:58.932Z,101132.40
2024-05-09T03:05:02.234Z,101134.85
2024-05-09T03:07:05.462Z,101134.52
2024-05-09T03:09:10.758Z,101135.02
2024-05-09T03:11:26.839Z,101135.49
2024-05-09T03:13:29.991Z,101134.95
2024-05-09T03:15:33.774Z,101135.66
2024-05-09T03:17:37.127Z,101134.23
2024-05-09T03:19:40.382Z,101134.52
2024-05-09T03:21:43.524Z,101132.99
2024-05-09T03:23:46.888Z,101133.13
2024-05-09T03:25:50.100Z,101134.05
2024-05-09T03:27:54.631Z,101130.69
2024-05-09T03:29:57.871Z,101130.68
2024-05-09T03:32:01.783Z,101129.38
2024-05-09T03:34:05.196Z,101129.84
2024-05-09T03:36:10.977Z,101130.35
2024-05-09T03:38:14.606Z,101128.32
2024-05-09T03:40:23.445Z,101129.83
2024-05-09T03:42:29.326Z,101129.12
2024-05-09T03:44:32.588Z,101127.89
2024-05-09T03:46:42.465Z,101126.29
2024-05-09T03:48:45.669Z,101126.00
2024-05-09T03:50:49.014Z,101131.54
2024-05-09T03:52:52.252Z,101131.23
2024-05-09T03:54:55.466Z,101131.13
2024-05-09T03:56:58.550Z,101133.83
2024-05-09T03:59:01.720Z,101131.86
2024-05-09T04:01:06.239Z,101135.15
2024-05-09T04:03:11.783Z,101140.00
2024-05-09T04:05:16.694Z,101144.45
2024-05-09T04:07:19.851Z,101146.06
2024-05-09T04:09:22.935Z,101147.69
2024-05-09T04:11:26.139Z,101145.90
2024-05-09T04:13:29.277Z,101145.55
2024-05-09T04:15:32.678Z,101146.85
2024-05-09T04:17:36.152Z,101145.76
2024-05-09T04:19:39.536Z,101146.45
2024-05-09T04:21:42.662Z,101147.53
2024-05-09T04:23:45.781Z,101146.79
2024-05-09T04:25:49.002Z,101147.90
2024-05-09T04:27:56.508Z,101150.09
2024-05-09T04:29:59.676Z,101150.88
2024-05-09T04:32:02.950Z,101151.58
2024-05-09T04:34:06.450Z,101150.77
2024-05-09T04:36:09.594Z,101151.33
2024-05-09T04:38:14.667Z,101153.75
2024-05-09T04:40:27.690Z,101156.37
2024-05-09T04:42:34.650Z,101159.27
2024-05-09T04:44:37.810Z,101160.60
2024-05-09T04:46:40.981Z,101159.79
2024-05-09T04:48:44.184Z,101158.65
2024-05-09T04:50:47.407Z,101158.78
2024-05-09T04:52:50.596Z,101157.42
2024-05-09T04:54:54.747Z,101159.01
2024-05-09T04:56:58.527Z,101159.20
2024-05-09T04:59:01.702Z,101162.09
2024-05-09T05:01:04.896Z,101161.84
2024-05-09T05:03:15.275Z,101163.32
2024-05-09T05:05:19.759Z,101163.73
2024-05-09T05:07:22.913Z,101165.10
2024-05-09T05:09:26.136Z,101163.74
2024-05-09T05:11:29.288Z,101165.88
2024-05-09T05:13:33.596Z,101167.99
2024-05-09T05:15:36.683Z,101167.30
2024-05-09T05:17:39.966Z,101168.15
2024-05-09T05:19:43.265Z,101171.88
2024-05-09T05:21:46.354Z,101175.91
2024-05-09T05:23:49.542Z,101177.93
2024-05-09T05:25:54.421Z,101177.64
2024-05-09T05:27:57.935Z,101177.89
2024-05-09T05:30:01.034Z,101176.09
2024-05-09T05:32:04.273Z,101179.71
2024-05-09T05:34:07.516Z,101179.30
2024-05-09T05:36:11.795Z,101182.29
2024-05-09T05:38:15.366Z,101184.27
2024-05-09T05:40:27.914Z,101182.73
2024-05-09T05:42:38.174Z,101184.14
2024-05-09T05:44:41.321Z,101183.12
2024-05-09T05:46:44.483Z,101182.49
2024-05-09T05:48:47.781Z,101183.42
2024-05-09T05:50:51.084Z,101184.46
2024-05-09T05:52:54.277Z,101186.66
2024-05-09T05:54:57.516Z,101189.42
2024-05-09T05:57:00.713Z,101190.94
2024-05-09T05:59:04.091Z,101194.01
2024-05-09T06:01:07.273Z,101194.34
2024-05-09T06:03:11.236Z,101196.48
2024-05-09T06:05:14.761Z,101199.67
2024-05-09T06:07:17.901Z,101201.23
2024-05-09T06:09:20.990Z,101202.84
2024-05-09T06:11:24.225Z,101199.49
2024-05-09T06:13:27.360Z,101199.33
2024-05-09T06:15:30.445Z,101199.30
2024-05-09T06:17:33.667Z,101195.54
2024-05-09T06:19:37.067Z,101194.70
2024-05-09T06:21:40.230Z,101195.93
2024-05-09T06:23:47.981Z,101197.44
2024-05-09T06:25:51.331Z,101197.17
2024-05-09T06:27:54.607Z,101193.94
2024-05-09T06:29:57.871Z,101190.60
2024-05-09T06:32:01.207Z,101190.07
2024-05-09T06:34:05.238Z,101188.86
2024-05-09T06:36:08.959Z,101189.63
2024-05-09T06:38:12.423Z,101189.34
2024-05-09T06:40:21.199Z,101190.90
2024-05-09T06:42:28.407Z,101190.37
2024-05-09T06:44:31.589Z,101191.64
2024-05-09T06:46:34.849Z,101195.44
2024-05-09T06:48:38.072Z,101197.20
2024-05-09T06:50:42.279Z,101197.78
2024-05-09T06:52:48.498Z,101195.74
2024-05-09T06:54:51.631Z,101194.20
2024-05-09T06:56:54.751Z,101196.63
2024-05-09T06:58:57.957Z,101196.55
2024-05-09T07:01:02.440Z,101195.88
2024-05-09T07:03:13.665Z,101196.52
2024-05-09T07:05:19.121Z,101198.02
2024-05-09T07:07:22.311Z,101196.40
2024-05-09T07:09:25.508Z,101197.44
2024-05-09T07:11:28.659Z,101197.94
2024-05-09T07:13:31.894Z,101196.07
2024-05-09T07:15:34.967Z,101194.77
2024-05-09T07:17:38.224Z,101194.70
2024-05-09T07:19:41.530Z,101191.86
2024-05-09T07:21:44.717Z,101191.13
2024-05-09T07:23:47.921Z,101189.93
2024-05-09T07:25:51.356Z,101189.87
2024-05-09T07:27:54.531Z,101189.94
2024-05-09T07:29:58.757Z,101188.52
2024-05-09T07:32:01.917Z,101184.52
2024-05-09T07:34:05.242Z,101182.99
2024-05-09T07:36:08.599Z,101179.77
2024-05-09T07:38:11.854Z,101177.40
2024-05-09T07:40:24.486Z,101176.51
2024-05-09T07:42:34.835Z,101173.33
2024-05-09T07:44:38.009Z,101171.69
2024-05-09T07:47:47.784Z,101170.26
2024-05-09T07:53:38.502Z,101169.02
2024-05-09T07:55:44.082Z,101166.48
2024-05-09T07:57:47.342Z,101165.02
2024-05-09T07:59:50.526Z,101163.03
2024-05-09T08:01:53.749Z,101158.18
2024-05-09T08:03:57.216Z,101156.99
2024-05-09T08:06:00.451Z,101153.66
2024-05-09T08:08:03.579Z,101152.81
2024-05-09T08:10:10.676Z,101149.45
2024-05-09T08:12:15.926Z,101151.32
2024-05-09T08:14:19.040Z,101154.88
2024-05-09T08:16:22.395Z,101154.52
2024-05-09T08:18:25.994Z,101153.02
2024-05-09T08:20:33.642Z,101150.18
2024-05-09T08:22:38.469Z,101145.30
2024-05-09T08:24:42.078Z,101141.34
2024-05-09T08:26:45.192Z,101141.51
2024-05-09T08:28:48.237Z,101139.26
2024-05-09T08:30:51.817Z,101137.13
2024-05-09T08:32:55.187Z,101133.45
2024-05-09T08:34:58.422Z,101131.43
2024-05-09T08:37:09.804Z,101131.48
2024-05-09T08:39:16.179Z,101130.48
2024-05-09T08:41:19.288Z,101131.55
2024-05-09T08:43:25.928Z,101129.57
2024-05-09T08:45:29.197Z,101132.45
2024-05-09T08:47:33.894Z,101132.04
2024-05-09T08:49:41.355Z,101134.24
2024-05-09T08:51:45.676Z,101133.77
2024-05-09T08:53:48.931Z,101135.04
2024-05-09T08:55:53.121Z,101130.17
2024-05-09T08:57:57.314Z,101127.95
2024-05-09T09:00:09.995Z,101126.79
2024-05-09T09:02:16.096Z,101123.86
2024-05-09T09:04:21.991Z,101123.38
2024-05-09T09:06:27.172Z,101123.48
2024-05-09T09:08:30.406Z,101124.31
2024-05-09T09:10:33.792Z,101121.17
2024-05-09T09:12:37.215Z,101117.64
2024-05-09T09:14:40.283Z,101115.97
2024-05-09T09:16:43.381Z,101113.87
2024-05-09T09:18:49.294Z,101112.52
2024-05-09T09:20:52.612Z,101107.19
2024-05-09T09:22:59.730Z,101105.49
2024-05-09T09:25:02.898Z,101106.52
2024-05-09T09:27:06.890Z,101105.63
2024-05-09T09:29:10.026Z,101104.26
2024-05-09T09:31:13.254Z,101099.42
2024-05-09T09:33:18.964Z,101098.37
2024-05-09T09:35:22.268Z,101095.03
2024-05-09T09:37:31.259Z,101096.73
2024-05-09T09:39:37.360Z,101095.27
2024-05-09T09:41:44.693Z,101095.10
2024-05-09T09:43:49.138Z,101095.37
2024-05-09T09:45:56.092Z,101097.13
2024-05-09T09:48:01.085Z,101096.80
2024-05-09T09:50:09.589Z,101094.09
2024-05-09T09:52:15.851Z,101092.88
2024-05-09T09:54:20.528Z,101088.27
2024-05-09T09:56:25.148Z,101086.51
2024-05-09T09:58:30.113Z,101086.41
2024-05-09T10:00:34.423Z,101090.88
2024-05-09T10:02:37.664Z,101088.63
2024-05-09T10:04:41.314Z,101089.66
2024-05-09T10:06:50.134Z,101089.89
2024-05-09T10:08:53.978Z,101088.27
2024-05-09T10:10:58.199Z,101089.75
2024-05-09T10:13:08.708Z,101087.48
2024-05-09T10:15:12.162Z,101086.27
2024-05-09T10:17:15.724Z,101089.13
2024-05-09T10:19:28.730Z,101087.67
2024-05-09T10:21:31.933Z,101082.58
2024-05-09T10:23:37.065Z,101082.09
2024-05-09T10:25:40.206Z,101076.54
2024-05-09T10:27:43.768Z,101069.89
2024-05-09T10:29:58.317Z,101066.94
2024-05-09T10:32:01.480Z,101068.21
2024-05-09T10:34:06.833Z,101067.77
2024-05-09T10:36:20.987Z,101065.37
2024-05-09T10:38:25.121Z,101061.34
2024-05-09T10:40:31.396Z,101056.93
2024-05-09T10:42:37.003Z,101055.55
2024-05-09T10:44:40.085Z,101050.52
2024-05-09T10:46:44.128Z,101051.24
2024-05-09T10:48:49.167Z,101050.37
2024-05-09T10:50:52.981Z,101049.53
2024-05-09T10:52:56.199Z,101047.70
2024-05-09T10:55:01.044Z,101043.59
2024-05-09T10:57:05.088Z,101039.40
2024-05-09T10:59:08.201Z,101037.42
2024-05-09T11:01:12.093Z,101037.52
2024-05-09T11:03:15.415Z,101032.89
2024-05-09T11:05:18.773Z,101031.16
2024-05-09T11:07:22.373Z,101026.71
2024-05-09T11:09:26.456Z,101025.20
2024-05-09T11:11:30.289Z,101025.07
2024-05-09T11:13:36.945Z,101026.29
2024-05-09T11:15:44.943Z,101024.20
2024-05-09T11:17:48.161Z,101019.93
2024-05-09T11:19:51.666Z,101024.85
2024-05-09T11:21:55.195Z,101023.38
2024-05-09T11:23:58.581Z,101021.60
2024-05-09T11:26:01.685Z,101020.93
2024-05-09T11:28:04.828Z,101018.34
2024-05-09T11:32:30.976Z,101010.57
2024-05-09T11:34:34.681Z,100998.45
2024-05-09T11:36:37.837Z,101004.35
2024-05-09T11:38:41.490Z,101001.80
2024-05-09T11:40:44.654Z,100995.25
2024-05-09T11:42:49.954Z,100996.67
2024-05-09T11:44:54.588Z,100997.45
2024-05-09T11:46:58.139Z,100993.37
2024-05-09T11:49:01.361Z,100998.18
2024-05-09T11:51:04.627Z,100993.11
2024-05-09T11:53:07.704Z,100985.02
2024-05-09T11:55:10.846Z,100988.12
2024-05-09T11:57:14.090Z,100985.64
2024-05-09T11:59:17.169Z,100984.01
2024-05-09T12:01:26.972Z,100981.21
2024-05-09T12:03:31.004Z,100980.95
2024-05-09T12:05:34.851Z,100978.57
2024-05-09T12:07:38.166Z,100973.48
2024-05-09T12:09:41.910Z,100973.64
2024-05-09T12:11:45.418Z,100970.51
2024-05-09T12:13:48.524Z,100970.26
2024-05-09T12:15:51.641Z,100969.37
2024-05-09T12:17:55.943Z,100966.49
2024-05-09T12:20:00.428Z,100962.06
2024-05-09T12:22:03.682Z,100958.29
2024-05-09T12:24:06.845Z,100956.91
2024-05-09T12:26:11.775Z,100951.52
2024-05-09T12:28:15.880Z,100953.59
2024-05-09T12:30:32.091Z,100953.41
2024-05-09T12:32:40.493Z,100951.09
2024-05-09T12:34:43.643Z,100949.49
2024-05-09T12:36:46.850Z,100947.09
2024-05-09T12:38:51.037Z,100941.04
2024-05-09T12:40:54.491Z,100936.78
2024-05-09T12:42:57.721Z,100932.27
2024-05-09T12:45:00.884Z,100933.34
2024-05-09T12:47:04.178Z,100930.25
2024-05-09T12:49:07.597Z,100930.04
2024-05-09T12:51:10.884Z,100924.06
2024-05-09T12:53:13.989Z,100922.34
2024-05-09T12:55:17.225Z,100924.55
2024-05-09T12:57:20.433Z,100928.17
2024-05-09T12:59:23.586Z,100923.71
2024-05-09T13:01:26.793Z,100919.27
2024-05-09T13:03:30.055Z,100911.63
2024-05-09T13:05:33.482Z,100915.42
2024-05-09T13:07:36.769Z,100911.19
2024-05-09T13:09:39.924Z,100911.34
2024-05-09T13:11:43.861Z,100912.65
2024-05-09T13:13:47.034Z,100913.53
2024-05-09T13:15:50.346Z,100910.13
2024-05-09T13:17:53.576Z,100910.29
2024-05-09T13:19:56.955Z,100908.64
2024-05-09T13:22:00.313Z,100903.63
2024-05-09T13:24:03.628Z,100898.76
2024-05-09T13:26:06.716Z,100885.06
2024-05-09T13:28:10.201Z,100885.07
2024-05-09T13:30:21.744Z,100884.03
2024-05-09T13:32:32.128Z,100885.07
2024-05-09T13:34:35.366Z,100881.08
2024-05-09T13:36:38.644Z,100879.22
2024-05-09T13:38:41.811Z,100877.13
2024-05-09T13:40:45.160Z,100878.71
2024-05-09T13:42:48.947Z,100874.23
2024-05-09T13:44:52.176Z,100871.93
2024-05-09T13:46:55.322Z,100864.86
2024-05-09T13:48:59.025Z,100862.34
2024-05-09T13:51:02.164Z,100853.59
2024-05-09T13:53:07.923Z,100856.37
2024-05-09T13:55:12.988Z,100856.31
2024-05-09T13:57:16.188Z,100854.52
2024-05-09T13:59:19.503Z,100853.89
2024-05-09T14:01:22.642Z,100852.73
2024-05-09T14:03:27.960Z,100850.58
2024-05-09T14:05:31.635Z,100847.21
2024-05-09T14:07:34.834Z,100838.07
2024-05-09T14:09:38.668Z,100838.62
2024-05-09T14:11:41.756Z,100837.96
2024-05-09T14:13:44.899Z,100835.78
2024-05-09T14:15:48.187Z,100833.42
2024-05-09T14:17:51.420Z,100830.81
2024-05-09T14:19:54.621Z,100827.74
2024-05-09T14:21:58.073Z,100825.34
2024-05-09T14:24:02.136Z,100825.45
2024-05-09T14:26:05.577Z,100822.89
2024-05-09T14:28:08.955Z,100818.80
2024-05-09T14:30:18.453Z,100819.02
2024-05-09T14:32:29.132Z,100818.88
2024-05-09T14:34:32.523Z,100817.66
2024-05-09T14:36:35.756Z,100814.17
2024-05-09T14:38:39.025Z,100814.62
2024-05-09T14:40:44.019Z,100812.37
2024-05-09T14:42:47.482Z,100804.78
2024-05-09T14:44:51.031Z,100797.02
2024-05-09T14:46:54.202Z,100796.97
2024-05-09T14:48:59.455Z,100791.84
2024-05-09T14:51:02.690Z,100792.84
2024-05-09T14:53:07.356Z,100792.06
2024-05-09T14:55:12.340Z,100789.23
2024-05-09T14:57:15.590Z,100786.80
2024-05-09T14:59:18.796Z,100787.31
2024-05-09T15:01:24.301Z,100787.13
2024-05-09T15:03:28.049Z,100785.79
2024-05-09T15:05:31.336Z,100783.54
2024-05-09T15:07:35.492Z,100780.41
2024-05-09T15:09:38.775Z,100775.04
2024-05-09T15:11:42.097Z,100769.68
2024-05-09T15:13:45.274Z,100770.58
2024-05-09T15:15:48.681Z,100767.20
2024-05-09T15:17:52.410Z,100763.80
2024-05-09T15:19:55.751Z,100763.64
2024-05-09T15:21:59.142Z,100761.59
2024-05-09T15:24:02.301Z,100761.27
2024-05-09T15:26:06.030Z,100760.13
2024-05-09T15:28:10.822Z,100762.34
2024-05-09T15:30:15.580Z,100759.83
2024-05-09T15:32:21.385Z,100759.77
2024-05-09T15:34:24.549Z,100758.78
2024-05-09T15:36:27.689Z,100761.56
2024-05-09T15:38:30.862Z,100759.34
2024-05-09T15:40:39.593Z,100758.73
2024-05-09T15:42:44.126Z,100758.97
2024-05-09T15:44:53.582Z,100756.71
2024-05-09T15:46:57.207Z,100755.96
2024-05-09T15:49:00.679Z,100756.62
2024-05-09T15:51:03.962Z,100754.04
2024-05-09T15:53:08.079Z,100754.24
2024-05-09T15:55:12.266Z,100753.42
2024-05-09T15:57:15.513Z,100750.26
2024-05-09T15:59:19.503Z,100747.75
2024-05-09T16:01:22.758Z,100744.23
2024-05-09T16:03:26.070Z,100740.10
2024-05-09T16:05:29.437Z,100739.92
2024-05-09T16:07:32.635Z,100740.46
2024-05-09T16:09:35.740Z,100737.91
2024-05-09T16:11:38.988Z,100737.67
2024-05-09T16:13:42.128Z,100740.29
2024-05-09T16:15:45.378Z,100740.45
2024-05-09T16:17:48.656Z,100737.48
2024-05-09T16:19:51.794Z,100736.47
2024-05-09T16:21:54.902Z,100737.13
2024-05-09T16:23:58.178Z,100736.54
2024-05-09T16:26:01.417Z,100733.55
2024-05-09T16:28:08.766Z,100731.78
2024-05-09T16:30:21.301Z,100731.59
2024-05-09T16:32:31.371Z,100732.08
2024-05-09T16:34:34.608Z,100730.91
2024-05-09T16:36:37.877Z,100731.49
2024-05-09T16:38:42.432Z,100732.63
2024-05-09T16:40:45.799Z,100731.71
2024-05-09T16:42:48.988Z,100731.63
2024-05-09T16:44:54.438Z,100730.45
2024-05-09T16:46:57.600Z,100726.31
2024-05-09T16:49:00.914Z,100724.07
2024-05-09T16:51:04.064Z,100722.26
2024-05-09T16:53:07.688Z,100722.57
2024-05-09T16:55:10.979Z,100719.99
2024-05-09T16:57:14.079Z,100721.41
2024-05-09T16:59:17.731Z,100722.17
2024-05-09T17:01:20.917Z,100721.82
2024-05-09T17:03:24.550Z,100722.17
2024-05-09T17:05:29.385Z,100724.67
2024-05-09T17:07:33.452Z,100723.21
2024-05-09T17:09:36.614Z,100721.87
2024-05-09T17:11:39.816Z,100720.85
2024-05-09T17:13:45.974Z,100719.92
2024-05-09T17:15:51.109Z,100719.80
2024-05-09T17:17:54.258Z,100722.73
2024-05-09T17:19:57.383Z,100722.66
2024-05-09T17:22:00.491Z,100724.23
2024-05-09T17:24:03.657Z,100725.48
2024-05-09T17:26:07.208Z,100723.54
2024-05-09T17:28:10.980Z,100722.23
2024-05-09T17:30:21.632Z,100721.99
2024-05-09T17:32:32.069Z,100723.38
2024-05-09T17:34:35.780Z,100725.18
2024-05-09T17:36:39.135Z,100722.20
2024-05-09T17:38:42.276Z,100722.58
2024-05-09T17:40:45.446Z,100717.67
2024-05-09T17:42:48.930Z,100718.09
2024-05-09T17:44:52.051Z,100717.95
2024-05-09T17:46:55.183Z,100717.89
2024-05-09T17:49:01.055Z,100717.37
2024-05-09T17:51:04.469Z,100719.70
2024-05-09T17:53:07.871Z,100722.49
2024-05-09T17:55:10.984Z,100724.49
2024-05-09T17:57:14.138Z,100728.80
2024-05-09T17:59:17.214Z,100728.96
2024-05-09T18:01:20.554Z,100727.27
2024-05-09T18:03:24.261Z,100728.94
2024-05-09T18:05:30.007Z,100728.47
2024-05-09T18:07:33.672Z,100730.91
2024-05-09T18:09:36.874Z,100731.82
2024-05-09T18:11:41.464Z,100732.47
2024-05-09T18:13:48.026Z,100734.47
2024-05-09T18:15:51.215Z,100737.83
2024-05-09T18:17:54.787Z,100742.74
2024-05-09T18:19:58.057Z,100744.69
2024-05-09T18:22:01.364Z,100745.15
2024-05-09T18:24:04.535Z,100746.07
2024-05-09T18:26:09.496Z,100746.93
2024-05-09T18:28:13.065Z,100748.13
2024-05-09T18:30:27.322Z,100749.59
2024-05-09T18:32:34.769Z,100748.65
2024-05-09T18:34:37.964Z,100749.35
2024-05-09T18:36:41.873Z,100753.82
2024-05-09T18:38:45.043Z,100756.33
2024-05-09T18:40:49.493Z,100757.02
2024-05-09T18:42:52.963Z,100757.96
2024-05-09T18:44:56.104Z,100758.74
2024-05-09T18:46:59.458Z,100756.97
2024-05-09T18:49:02.747Z,100759.15
2024-05-09T18:51:06.482Z,100761.46
2024-05-09T18:53:13.045Z,100765.57
2024-05-09T18:55:16.830Z,100767.43
2024-05-09T18:57:20.041Z,100769.45
2024-05-09T18:59:23.471Z,100769.80
2024-05-09T19:01:26.647Z,100769.81
2024-05-09T19:03:30.005Z,100768.91
2024-05-09T19:05:33.550Z,100770.88
2024-05-09T19:07:36.879Z,100773.11
2024-05-09T19:09:39.979Z,100778.87
2024-05-09T19:11:43.217Z,100783.00
2024-05-09T19:13:46.301Z,100786.82
2024-05-09T19:15:49.458Z,100789.74
2024-05-09T19:17:52.847Z,100789.24
2024-05-09T19:19:56.129Z,100791.84
2024-05-09T19:21:59.387Z,100795.38
2024-05-09T19:24:02.551Z,100795.00
2024-05-09T19:26:05.918Z,100799.47
2024-05-09T19:28:09.271Z,100801.17
2024-05-09T19:30:21.070Z,100799.77
2024-05-09T19:32:28.870Z,100802.08
2024-05-09T19:34:32.066Z,100803.70
2024-05-09T19:36:36.578Z,100805.80
2024-05-09T19:38:39.762Z,100808.02
2024-05-09T19:40:43.117Z,100810.37
2024-05-09T19:42:46.291Z,100813.35
2024-05-09T19:44:49.442Z,100814.55
2024-05-09T19:46:52.570Z,100815.32
2024-05-09T19:48:56.034Z,100813.92
2024-05-09T19:50:59.302Z,100815.32
2024-05-09T19:53:02.473Z,100815.75
2024-05-09T19:55:05.869Z,100818.04
2024-05-09T19:57:09.075Z,100816.88
2024-05-09T19:59:13.995Z,100817.80
2024-05-09T20:01:18.637Z,100818.99
2024-05-09T20:03:22.440Z,100817.91
2024-05-09T20:05:26.548Z,100816.41
2024-05-09T20:07:31.791Z,100817.27
2024-05-09T20:09:35.723Z,100818.68
2024-05-09T20:11:39.678Z,100818.16
2024-05-09T20:13:42.760Z,100819.59
2024-05-09T20:15:46.020Z,100823.70
2024-05-09T20:17:49.215Z,100826.08
2024-05-09T20:19:52.615Z,100827.17
2024-05-09T20:21:55.829Z,100825.49
2024-05-09T20:23:58.977Z,100822.07
2024-05-09T20:26:02.104Z,100823.09
2024-05-09T20:28:07.144Z,100822.20
2024-05-09T20:30:14.351Z,100823.87
2024-05-09T20:32:18.013Z,100823.70
2024-05-09T20:34:21.163Z,100822.08
2024-05-09T20:36:24.246Z,100823.26
2024-05-09T20:38:27.333Z,100823.85
2024-05-09T20:40:35.041Z,100823.73
2024-05-09T20:42:41.146Z,100824.63
2024-05-09T20:44:44.297Z,100822.52
2024-05-09T20:46:47.660Z,100823.18
2024-05-09T20:48:50.993Z,100829.76
2024-05-09T20:50:54.138Z,100834.12
2024-05-09T20:52:57.385Z,100836.02
2024-05-09T20:55:00.571Z,100835.81
2024-05-09T20:57:03.964Z,100839.31
2024-05-09T20:59:07.118Z,100837.31
2024-05-09T21:01:10.253Z,100836.96
2024-05-09T21:03:16.788Z,100835.73
2024-05-09T21:05:20.842Z,100837.04
2024-05-09T21:07:24.039Z,100838.11
2024-05-09T21:09:27.284Z,100837.26
2024-05-09T21:11:30.432Z,100839.11
2024-05-09T21:13:33.664Z,100840.40
2024-05-09T21:15:36.921Z,100842.52
2024-05-09T21:17:40.151Z,100842.05
2024-05-09T21:19:43.383Z,100842.25
2024-05-09T21:21:46.560Z,100839.31
2024-05-09T21:23:49.640Z,100837.77
2024-05-09T21:25:52.768Z,100836.60
2024-05-09T21:27:55.966Z,100839.01
2024-05-09T21:29:59.156Z,100840.67
2024-05-09T21:32:02.248Z,100843.69
2024-05-09T21:34:05.534Z,100845.09
2024-05-09T21:36:10.668Z,100841.90
2024-05-09T21:38:15.170Z,100842.45
2024-05-09T21:40:27.116Z,100841.11
2024-05-09T21:42:37.097Z,100841.12
2024-05-09T21:44:40.242Z,100841.99
2024-05-09T21:46:43.386Z,100846.02
2024-05-09T21:48:46.792Z,100847.02
2024-05-09T21:50:50.611Z,100847.14
2024-05-09T21:52:53.883Z,100846.69
2024-05-09T21:54:59.233Z,100845.91
2024-05-09T21:57:02.364Z,100844.74
2024-05-09T21:59:05.486Z,100841.66
2024-05-09T22:01:08.647Z,100841.09
2024-05-09T22:03:12.664Z,100837.57
2024-05-09T22:05:16.143Z,100835.85
2024-05-09T22:07:19.369Z,100836.41
2024-05-09T22:09:22.564Z,100838.55
2024-05-09T22:11:25.999Z,100838.45
2024-05-09T22:13:29.736Z,100837.80
2024-05-09T22:15:37.172Z,100836.91
2024-05-09T22:17:42.070Z,100837.44
2024-05-09T22:19:50.029Z,100837.30
2024-05-09T22:21:53.577Z,100836.64
2024-05-09T22:23:57.039Z,100836.93
2024-05-09T22:26:00.131Z,100836.75
2024-05-09T22:28:04.381Z,100839.66
2024-05-09T22:30:11.884Z,100840.93
2024-05-09T22:32:20.713Z,100842.91
2024-05-09T22:34:24.057Z,100843.47
2024-05-09T22:36:27.333Z,100844.56
2024-05-09T22:38:30.414Z,100846.45
2024-05-09T22:40:43.070Z,100848.17
2024-05-09T22:42:51.314Z,100846.34
2024-05-09T22:44:54.426Z,100844.38
2024-05-09T22:46:57.630Z,100843.63
2024-05-09T22:49:00.839Z,100843.70
2024-05-09T22:51:04.354Z,100845.23
2024-05-09T22:53:07.489Z,100843.65
2024-05-09T22:55:10.720Z,100845.24
2024-05-09T22:57:13.910Z,100844.12
2024-05-09T22:59:17.306Z,100844.29
2024-05-09T23:01:21.466Z,100841.53
2024-05-09T23:03:27.334Z,100842.56
2024-05-09T23:05:31.392Z,100838.73
2024-05-09T23:07:34.576Z,100836.38
2024-05-09T23:09:37.676Z,100837.75
2024-05-09T23:11:43.894Z,100835.89
2024-05-09T23:13:47.269Z,100834.63
2024-05-09T23:15:50.532Z,100833.69
2024-05-09T23:17:53.861Z,100835.10
2024-05-09T23:19:57.086Z,100834.41
2024-05-09T23:22:00.430Z,100838.12
2024-05-09T23:24:03.564Z,100837.87
2024-05-09T23:26:06.657Z,100836.33
2024-05-09T23:28:09.998Z,100830.63
2024-05-09T23:30:21.766Z,100828.66
2024-05-09T23:32:31.746Z,100825.02
2024-05-09T23:34:34.962Z,100826.05
2024-05-09T23:36:39.369Z,100827.70
2024-05-09T23:38:43.537Z,100828.15
2024-05-09T23:40:46.673Z,100827.31
2024-05-09T23:42:49.808Z,100828.38
2024-05-09T23:44:54.501Z,100825.32